sensor_id;sensor_type;location;lat;lon;timestamp;P1;durP1;ratioP1;P2;durP2;ratioP2
57023;SDS011;42916;54.346;18.562;2023-07-20T00:00:02;5.10;;;2.50;;
57023;SDS011;42916;54.346;18.562;2023-07-20T00:03:12;3.10;;;2.30;;
57023;SDS011;42916;54.346;18.562;2023-07-20T00:05:43;3.60;;;2.30;;
57023;SDS011;42916;54.346;18.562;2023-07-20T00:08:10;5.60;;;3.30;;
57023;SDS011;42916;54.346;18.562;2023-07-20T00:10:37;5.20;;;2.90;;
57023;SDS011;42916;54.346;18.562;2023-07-20T00:13:04;6.90;;;3.20;;
57023;SDS011;42916;54.346;18.562;2023-07-20T00:15:30;3.10;;;2.80;;
57023;SDS011;42916;54.346;18.562;2023-07-20T00:17:57;4.70;;;3.20;;
57023;SDS011;42916;54.346;18.562;2023-07-20T00:20:24;3.90;;;3.00;;
57023;SDS011;42916;54.346;18.562;2023-07-20T00:22:51;4.60;;;2.70;;
57023;SDS011;42916;54.346;18.562;2023-07-20T00:25:18;5.30;;;2.70;;
57023;SDS011;42916;54.346;18.562;2023-07-20T00:27:45;3.50;;;2.50;;
57023;SDS011;42916;54.346;18.562;2023-07-20T00:30:12;4.40;;;2.60;;
57023;SDS011;42916;54.346;18.562;2023-07-20T00:32:39;3.00;;;2.60;;
57023;SDS011;42916;54.346;18.562;2023-07-20T00:35:06;3.60;;;2.40;;
57023;SDS011;42916;54.346;18.562;2023-07-20T00:37:33;3.40;;;2.80;;
57023;SDS011;42916;54.346;18.562;2023-07-20T00:39:59;3.20;;;2.40;;
57023;SDS011;42916;54.346;18.562;2023-07-20T00:42:26;4.70;;;2.80;;
57023;SDS011;42916;54.346;18.562;2023-07-20T00:44:53;4.50;;;2.90;;
57023;SDS011;42916;54.346;18.562;2023-07-20T00:47:20;5.90;;;2.60;;
57023;SDS011;42916;54.346;18.562;2023-07-20T00:49:46;6.00;;;2.80;;
57023;SDS011;42916;54.346;18.562;2023-07-20T00:52:14;4.20;;;2.90;;
57023;SDS011;42916;54.346;18.562;2023-07-20T00:54:43;6.00;;;2.80;;
57023;SDS011;42916;54.346;18.562;2023-07-20T00:57:10;4.90;;;2.70;;
57023;SDS011;42916;54.346;18.562;2023-07-20T00:59:41;2.40;;;2.00;;
57023;SDS011;42916;54.346;18.562;2023-07-20T01:02:08;4.50;;;2.50;;
57023;SDS011;42916;54.346;18.562;2023-07-20T01:04:35;3.60;;;2.50;;
57023;SDS011;42916;54.346;18.562;2023-07-20T01:09:56;3.30;;;2.10;;
57023;SDS011;42916;54.346;18.562;2023-07-20T01:12:46;5.70;;;2.30;;
57023;SDS011;42916;54.346;18.562;2023-07-20T01:15:14;2.50;;;2.30;;
57023;SDS011;42916;54.346;18.562;2023-07-20T01:17:40;4.00;;;2.60;;
57023;SDS011;42916;54.346;18.562;2023-07-20T01:20:08;3.70;;;2.30;;
57023;SDS011;42916;54.346;18.562;2023-07-20T01:28:13;3.00;;;2.40;;
57023;SDS011;42916;54.346;18.562;2023-07-20T01:31:28;4.10;;;2.30;;
57023;SDS011;42916;54.346;18.562;2023-07-20T01:33:50;3.10;;;2.20;;
57023;SDS011;42916;54.346;18.562;2023-07-20T01:36:18;3.30;;;2.00;;
57023;SDS011;42916;54.346;18.562;2023-07-20T01:38:47;4.30;;;2.30;;
57023;SDS011;42916;54.346;18.562;2023-07-20T01:41:15;3.60;;;2.20;;
57023;SDS011;42916;54.346;18.562;2023-07-20T01:43:43;2.50;;;2.00;;
57023;SDS011;42916;54.346;18.562;2023-07-20T01:46:10;1.70;;;1.60;;
57023;SDS011;42916;54.346;18.562;2023-07-20T01:48:36;3.70;;;1.80;;
57023;SDS011;42916;54.346;18.562;2023-07-20T01:51:03;3.80;;;2.00;;
57023;SDS011;42916;54.346;18.562;2023-07-20T01:53:30;2.70;;;2.00;;
57023;SDS011;42916;54.346;18.562;2023-07-20T01:55:57;3.30;;;2.30;;
57023;SDS011;42916;54.346;18.562;2023-07-20T01:58:24;3.10;;;2.50;;
57023;SDS011;42916;54.346;18.562;2023-07-20T02:00:51;4.10;;;2.40;;
57023;SDS011;42916;54.346;18.562;2023-07-20T02:03:18;3.30;;;2.10;;
57023;SDS011;42916;54.346;18.562;2023-07-20T02:05:44;2.90;;;1.90;;
57023;SDS011;42916;54.346;18.562;2023-07-20T02:08:12;3.10;;;2.10;;
57023;SDS011;42916;54.346;18.562;2023-07-20T02:10:39;3.10;;;2.00;;
57023;SDS011;42916;54.346;18.562;2023-07-20T02:13:06;2.00;;;1.70;;
57023;SDS011;42916;54.346;18.562;2023-07-20T02:15:33;4.20;;;2.00;;
57023;SDS011;42916;54.346;18.562;2023-07-20T02:17:59;3.30;;;2.50;;
57023;SDS011;42916;54.346;18.562;2023-07-20T02:20:26;2.40;;;1.90;;
57023;SDS011;42916;54.346;18.562;2023-07-20T02:22:54;4.10;;;2.20;;
57023;SDS011;42916;54.346;18.562;2023-07-20T02:25:21;2.80;;;1.90;;
57023;SDS011;42916;54.346;18.562;2023-07-20T02:27:48;2.20;;;1.90;;
57023;SDS011;42916;54.346;18.562;2023-07-20T02:30:14;3.90;;;2.20;;
57023;SDS011;42916;54.346;18.562;2023-07-20T02:32:42;3.30;;;2.60;;
57023;SDS011;42916;54.346;18.562;2023-07-20T02:37:39;2.20;;;2.00;;
57023;SDS011;42916;54.346;18.562;2023-07-20T02:40:06;3.10;;;2.20;;
57023;SDS011;42916;54.346;18.562;2023-07-20T02:42:33;2.80;;;2.10;;
57023;SDS011;42916;54.346;18.562;2023-07-20T02:45:01;3.20;;;2.40;;
57023;SDS011;42916;54.346;18.562;2023-07-20T02:47:29;2.70;;;2.00;;
57023;SDS011;42916;54.346;18.562;2023-07-20T02:49:56;3.20;;;2.10;;
57023;SDS011;42916;54.346;18.562;2023-07-20T02:52:23;5.80;;;2.00;;
57023;SDS011;42916;54.346;18.562;2023-07-20T02:54:50;3.90;;;2.10;;
57023;SDS011;42916;54.346;18.562;2023-07-20T02:57:18;4.20;;;2.30;;
57023;SDS011;42916;54.346;18.562;2023-07-20T02:59:44;5.50;;;2.50;;
57023;SDS011;42916;54.346;18.562;2023-07-20T03:02:11;4.10;;;2.20;;
57023;SDS011;42916;54.346;18.562;2023-07-20T03:04:38;5.10;;;2.40;;
57023;SDS011;42916;54.346;18.562;2023-07-20T03:07:05;3.60;;;2.20;;
57023;SDS011;42916;54.346;18.562;2023-07-20T03:09:32;3.90;;;2.20;;
57023;SDS011;42916;54.346;18.562;2023-07-20T03:11:59;3.10;;;1.80;;
57023;SDS011;42916;54.346;18.562;2023-07-20T03:14:26;2.90;;;2.10;;
57023;SDS011;42916;54.346;18.562;2023-07-20T03:16:53;6.00;;;2.50;;
57023;SDS011;42916;54.346;18.562;2023-07-20T03:19:19;3.30;;;2.90;;
57023;SDS011;42916;54.346;18.562;2023-07-20T03:21:46;4.30;;;2.20;;
57023;SDS011;42916;54.346;18.562;2023-07-20T03:24:13;3.60;;;2.60;;
57023;SDS011;42916;54.346;18.562;2023-07-20T03:26:40;4.80;;;2.70;;
57023;SDS011;42916;54.346;18.562;2023-07-20T03:29:07;4.70;;;2.80;;
57023;SDS011;42916;54.346;18.562;2023-07-20T03:31:34;3.00;;;2.00;;
57023;SDS011;42916;54.346;18.562;2023-07-20T03:34:01;2.90;;;2.10;;
57023;SDS011;42916;54.346;18.562;2023-07-20T03:36:28;2.80;;;1.90;;
57023;SDS011;42916;54.346;18.562;2023-07-20T03:38:55;4.50;;;2.20;;
57023;SDS011;42916;54.346;18.562;2023-07-20T03:41:22;4.70;;;2.30;;
57023;SDS011;42916;54.346;18.562;2023-07-20T03:43:48;3.10;;;2.40;;
57023;SDS011;42916;54.346;18.562;2023-07-20T03:46:15;2.90;;;2.10;;
57023;SDS011;42916;54.346;18.562;2023-07-20T03:48:42;3.90;;;2.30;;
57023;SDS011;42916;54.346;18.562;2023-07-20T03:51:09;2.70;;;2.30;;
57023;SDS011;42916;54.346;18.562;2023-07-20T03:53:36;2.70;;;2.20;;
57023;SDS011;42916;54.346;18.562;2023-07-20T03:56:02;6.00;;;2.50;;
57023;SDS011;42916;54.346;18.562;2023-07-20T03:58:29;4.30;;;2.50;;
57023;SDS011;42916;54.346;18.562;2023-07-20T04:00:57;7.10;;;2.40;;
57023;SDS011;42916;54.346;18.562;2023-07-20T04:03:24;4.10;;;2.00;;
57023;SDS011;42916;54.346;18.562;2023-07-20T04:05:53;5.10;;;2.20;;
57023;SDS011;42916;54.346;18.562;2023-07-20T04:08:24;3.90;;;2.40;;
57023;SDS011;42916;54.346;18.562;2023-07-20T04:10:51;2.70;;;2.10;;
57023;SDS011;42916;54.346;18.562;2023-07-20T04:13:18;2.90;;;2.10;;
57023;SDS011;42916;54.346;18.562;2023-07-20T04:15:45;3.70;;;2.30;;
57023;SDS011;42916;54.346;18.562;2023-07-20T04:18:12;2.70;;;2.10;;
57023;SDS011;42916;54.346;18.562;2023-07-20T04:20:38;3.20;;;2.10;;
57023;SDS011;42916;54.346;18.562;2023-07-20T04:23:05;5.00;;;1.90;;
57023;SDS011;42916;54.346;18.562;2023-07-20T04:25:32;4.80;;;2.20;;
57023;SDS011;42916;54.346;18.562;2023-07-20T04:28:06;3.30;;;2.30;;
57023;SDS011;42916;54.346;18.562;2023-07-20T04:30:38;4.10;;;2.20;;
57023;SDS011;42916;54.346;18.562;2023-07-20T04:33:06;4.30;;;2.40;;
57023;SDS011;42916;54.346;18.562;2023-07-20T04:38:33;4.60;;;1.80;;
57023;SDS011;42916;54.346;18.562;2023-07-20T04:41:20;3.60;;;2.00;;
57023;SDS011;42916;54.346;18.562;2023-07-20T04:43:48;2.60;;;2.10;;
57023;SDS011;42916;54.346;18.562;2023-07-20T04:46:21;3.70;;;2.60;;
57023;SDS011;42916;54.346;18.562;2023-07-20T04:48:48;6.40;;;2.70;;
57023;SDS011;42916;54.346;18.562;2023-07-20T04:51:15;5.10;;;2.30;;
57023;SDS011;42916;54.346;18.562;2023-07-20T04:53:43;4.70;;;2.70;;
57023;SDS011;42916;54.346;18.562;2023-07-20T04:56:10;3.90;;;2.10;;
57023;SDS011;42916;54.346;18.562;2023-07-20T04:58:37;3.60;;;2.40;;
57023;SDS011;42916;54.346;18.562;2023-07-20T05:01:04;3.10;;;2.10;;
57023;SDS011;42916;54.346;18.562;2023-07-20T05:03:32;4.60;;;2.50;;
57023;SDS011;42916;54.346;18.562;2023-07-20T05:05:59;3.20;;;2.40;;
57023;SDS011;42916;54.346;18.562;2023-07-20T05:08:26;3.20;;;2.70;;
57023;SDS011;42916;54.346;18.562;2023-07-20T05:10:54;2.30;;;2.00;;
57023;SDS011;42916;54.346;18.562;2023-07-20T05:13:21;5.50;;;2.60;;
57023;SDS011;42916;54.346;18.562;2023-07-20T05:15:51;5.30;;;2.00;;
57023;SDS011;42916;54.346;18.562;2023-07-20T05:18:21;3.50;;;2.80;;
57023;SDS011;42916;54.346;18.562;2023-07-20T05:20:49;7.70;;;2.60;;
57023;SDS011;42916;54.346;18.562;2023-07-20T05:23:18;5.60;;;2.70;;
57023;SDS011;42916;54.346;18.562;2023-07-20T05:25:46;2.40;;;1.90;;
57023;SDS011;42916;54.346;18.562;2023-07-20T05:28:13;6.20;;;2.40;;
57023;SDS011;42916;54.346;18.562;2023-07-20T05:30:40;4.50;;;2.40;;
57023;SDS011;42916;54.346;18.562;2023-07-20T05:33:07;4.20;;;2.00;;
57023;SDS011;42916;54.346;18.562;2023-07-20T05:35:33;3.40;;;2.50;;
57023;SDS011;42916;54.346;18.562;2023-07-20T05:38:03;3.80;;;2.30;;
57023;SDS011;42916;54.346;18.562;2023-07-20T05:40:31;3.00;;;1.90;;
57023;SDS011;42916;54.346;18.562;2023-07-20T05:42:58;5.10;;;2.40;;
57023;SDS011;42916;54.346;18.562;2023-07-20T05:45:27;3.40;;;2.20;;
57023;SDS011;42916;54.346;18.562;2023-07-20T05:47:53;3.70;;;2.00;;
57023;SDS011;42916;54.346;18.562;2023-07-20T05:50:20;5.10;;;2.00;;
57023;SDS011;42916;54.346;18.562;2023-07-20T05:52:47;3.40;;;1.90;;
57023;SDS011;42916;54.346;18.562;2023-07-20T05:55:14;5.40;;;2.20;;
57023;SDS011;42916;54.346;18.562;2023-07-20T05:57:41;5.00;;;1.90;;
57023;SDS011;42916;54.346;18.562;2023-07-20T06:00:09;4.50;;;1.60;;
57023;SDS011;42916;54.346;18.562;2023-07-20T06:02:39;4.50;;;1.80;;
57023;SDS011;42916;54.346;18.562;2023-07-20T06:05:06;2.40;;;1.70;;
57023;SDS011;42916;54.346;18.562;2023-07-20T06:07:36;3.60;;;1.90;;
57023;SDS011;42916;54.346;18.562;2023-07-20T06:10:04;2.30;;;1.50;;
57023;SDS011;42916;54.346;18.562;2023-07-20T06:12:32;4.80;;;1.80;;
57023;SDS011;42916;54.346;18.562;2023-07-20T06:15:03;5.80;;;1.70;;
57023;SDS011;42916;54.346;18.562;2023-07-20T06:17:31;2.70;;;1.90;;
57023;SDS011;42916;54.346;18.562;2023-07-20T06:19:58;3.70;;;1.70;;
57023;SDS011;42916;54.346;18.562;2023-07-20T06:22:25;5.60;;;1.90;;
57023;SDS011;42916;54.346;18.562;2023-07-20T06:24:51;3.50;;;2.40;;
57023;SDS011;42916;54.346;18.562;2023-07-20T06:27:18;4.70;;;2.20;;
57023;SDS011;42916;54.346;18.562;2023-07-20T06:29:45;2.80;;;2.10;;
57023;SDS011;42916;54.346;18.562;2023-07-20T06:32:12;4.00;;;2.00;;
57023;SDS011;42916;54.346;18.562;2023-07-20T06:34:40;2.70;;;1.90;;
57023;SDS011;42916;54.346;18.562;2023-07-20T06:37:06;3.00;;;1.40;;
57023;SDS011;42916;54.346;18.562;2023-07-20T06:39:33;2.10;;;1.50;;
57023;SDS011;42916;54.346;18.562;2023-07-20T06:42:00;2.00;;;1.70;;
57023;SDS011;42916;54.346;18.562;2023-07-20T06:44:27;3.70;;;1.70;;
57023;SDS011;42916;54.346;18.562;2023-07-20T06:46:53;3.20;;;1.60;;
57023;SDS011;42916;54.346;18.562;2023-07-20T06:49:24;1.90;;;1.30;;
57023;SDS011;42916;54.346;18.562;2023-07-20T06:51:52;2.90;;;1.00;;
57023;SDS011;42916;54.346;18.562;2023-07-20T06:54:19;2.30;;;1.40;;
57023;SDS011;42916;54.346;18.562;2023-07-20T06:56:46;3.20;;;1.50;;
57023;SDS011;42916;54.346;18.562;2023-07-20T06:59:13;2.30;;;1.30;;
57023;SDS011;42916;54.346;18.562;2023-07-20T07:01:39;1.60;;;1.30;;
57023;SDS011;42916;54.346;18.562;2023-07-20T07:04:06;3.10;;;1.30;;
57023;SDS011;42916;54.346;18.562;2023-07-20T07:06:33;2.90;;;1.00;;
57023;SDS011;42916;54.346;18.562;2023-07-20T07:08:59;3.00;;;1.10;;
57023;SDS011;42916;54.346;18.562;2023-07-20T07:11:26;3.50;;;1.40;;
57023;SDS011;42916;54.346;18.562;2023-07-20T07:13:54;4.10;;;1.40;;
57023;SDS011;42916;54.346;18.562;2023-07-20T07:16:21;1.50;;;1.40;;
57023;SDS011;42916;54.346;18.562;2023-07-20T07:18:49;6.50;;;1.70;;
57023;SDS011;42916;54.346;18.562;2023-07-20T07:21:16;3.20;;;2.00;;
57023;SDS011;42916;54.346;18.562;2023-07-20T07:23:43;5.60;;;1.70;;
57023;SDS011;42916;54.346;18.562;2023-07-20T07:26:10;3.90;;;1.70;;
57023;SDS011;42916;54.346;18.562;2023-07-20T07:28:37;2.80;;;1.70;;
57023;SDS011;42916;54.346;18.562;2023-07-20T07:31:04;3.20;;;1.40;;
57023;SDS011;42916;54.346;18.562;2023-07-20T07:33:32;1.70;;;1.60;;
57023;SDS011;42916;54.346;18.562;2023-07-20T07:35:59;4.10;;;1.60;;
57023;SDS011;42916;54.346;18.562;2023-07-20T07:38:26;2.90;;;1.40;;
57023;SDS011;42916;54.346;18.562;2023-07-20T07:40:52;3.80;;;1.40;;
57023;SDS011;42916;54.346;18.562;2023-07-20T07:43:19;3.60;;;1.40;;
57023;SDS011;42916;54.346;18.562;2023-07-20T07:45:46;3.80;;;1.40;;
57023;SDS011;42916;54.346;18.562;2023-07-20T07:48:13;3.60;;;1.70;;
57023;SDS011;42916;54.346;18.562;2023-07-20T07:50:40;3.30;;;1.40;;
57023;SDS011;42916;54.346;18.562;2023-07-20T07:53:07;3.50;;;1.30;;
57023;SDS011;42916;54.346;18.562;2023-07-20T07:55:35;2.50;;;1.30;;
57023;SDS011;42916;54.346;18.562;2023-07-20T07:58:02;3.40;;;1.30;;
57023;SDS011;42916;54.346;18.562;2023-07-20T08:00:28;2.80;;;1.20;;
57023;SDS011;42916;54.346;18.562;2023-07-20T08:02:55;2.40;;;1.30;;
57023;SDS011;42916;54.346;18.562;2023-07-20T08:05:22;1.40;;;0.80;;
57023;SDS011;42916;54.346;18.562;2023-07-20T08:07:49;2.40;;;1.00;;
57023;SDS011;42916;54.346;18.562;2023-07-20T08:10:15;3.70;;;1.00;;
57023;SDS011;42916;54.346;18.562;2023-07-20T08:12:42;1.60;;;1.10;;
57023;SDS011;42916;54.346;18.562;2023-07-20T08:15:10;4.30;;;1.60;;
57023;SDS011;42916;54.346;18.562;2023-07-20T08:17:39;1.40;;;0.80;;
57023;SDS011;42916;54.346;18.562;2023-07-20T08:20:05;1.50;;;0.70;;
57023;SDS011;42916;54.346;18.562;2023-07-20T08:22:33;1.30;;;0.60;;
57023;SDS011;42916;54.346;18.562;2023-07-20T08:24:59;1.20;;;0.90;;
57023;SDS011;42916;54.346;18.562;2023-07-20T08:27:26;1.70;;;0.80;;
57023;SDS011;42916;54.346;18.562;2023-07-20T08:29:53;1.90;;;0.80;;
57023;SDS011;42916;54.346;18.562;2023-07-20T08:32:20;0.80;;;0.80;;
57023;SDS011;42916;54.346;18.562;2023-07-20T08:34:47;2.50;;;0.80;;
57023;SDS011;42916;54.346;18.562;2023-07-20T08:37:13;1.20;;;0.80;;
57023;SDS011;42916;54.346;18.562;2023-07-20T08:39:40;2.10;;;1.00;;
57023;SDS011;42916;54.346;18.562;2023-07-20T08:42:07;2.50;;;0.80;;
57023;SDS011;42916;54.346;18.562;2023-07-20T08:44:34;1.40;;;0.60;;
57023;SDS011;42916;54.346;18.562;2023-07-20T08:47:02;0.70;;;0.70;;
57023;SDS011;42916;54.346;18.562;2023-07-20T08:49:33;0.80;;;0.60;;
57023;SDS011;42916;54.346;18.562;2023-07-20T08:52:02;1.00;;;0.80;;
57023;SDS011;42916;54.346;18.562;2023-07-20T08:54:30;2.20;;;1.40;;
57023;SDS011;42916;54.346;18.562;2023-07-20T08:57:01;82.10;;;19.50;;
57023;SDS011;42916;54.346;18.562;2023-07-20T08:59:29;176.20;;;32.50;;
57023;SDS011;42916;54.346;18.562;2023-07-20T09:01:56;24.60;;;7.00;;
57023;SDS011;42916;54.346;18.562;2023-07-20T09:04:25;20.20;;;4.50;;
57023;SDS011;42916;54.346;18.562;2023-07-20T09:06:51;33.10;;;6.70;;
57023;SDS011;42916;54.346;18.562;2023-07-20T09:09:19;3.80;;;1.50;;
57023;SDS011;42916;54.346;18.562;2023-07-20T09:11:49;4.70;;;1.70;;
57023;SDS011;42916;54.346;18.562;2023-07-20T09:14:16;3.40;;;1.50;;
57023;SDS011;42916;54.346;18.562;2023-07-20T09:19:17;2.20;;;0.70;;
57023;SDS011;42916;54.346;18.562;2023-07-20T09:21:44;1.00;;;0.50;;
57023;SDS011;42916;54.346;18.562;2023-07-20T09:24:13;0.70;;;0.70;;
57023;SDS011;42916;54.346;18.562;2023-07-20T09:26:41;1.30;;;0.50;;
57023;SDS011;42916;54.346;18.562;2023-07-20T09:29:09;0.80;;;0.60;;
57023;SDS011;42916;54.346;18.562;2023-07-20T09:31:39;0.80;;;0.60;;
57023;SDS011;42916;54.346;18.562;2023-07-20T09:34:08;0.80;;;0.60;;
57023;SDS011;42916;54.346;18.562;2023-07-20T09:36:35;2.00;;;0.70;;
57023;SDS011;42916;54.346;18.562;2023-07-20T09:39:03;2.60;;;0.70;;
57023;SDS011;42916;54.346;18.562;2023-07-20T09:41:39;0.80;;;0.60;;
57023;SDS011;42916;54.346;18.562;2023-07-20T09:44:08;0.80;;;0.60;;
57023;SDS011;42916;54.346;18.562;2023-07-20T09:46:46;1.30;;;0.70;;
57023;SDS011;42916;54.346;18.562;2023-07-20T09:49:14;2.30;;;0.60;;
57023;SDS011;42916;54.346;18.562;2023-07-20T09:51:41;3.10;;;1.10;;
57023;SDS011;42916;54.346;18.562;2023-07-20T09:54:08;0.90;;;0.70;;
57023;SDS011;42916;54.346;18.562;2023-07-20T09:56:36;1.00;;;0.60;;
57023;SDS011;42916;54.346;18.562;2023-07-20T09:59:04;0.90;;;0.60;;
57023;SDS011;42916;54.346;18.562;2023-07-20T10:01:31;1.20;;;0.60;;
57023;SDS011;42916;54.346;18.562;2023-07-20T10:04:02;1.60;;;0.70;;
57023;SDS011;42916;54.346;18.562;2023-07-20T10:06:31;1.30;;;0.70;;
57023;SDS011;42916;54.346;18.562;2023-07-20T10:09:00;0.90;;;0.70;;
57023;SDS011;42916;54.346;18.562;2023-07-20T10:11:34;1.80;;;0.80;;
57023;SDS011;42916;54.346;18.562;2023-07-20T10:14:04;2.10;;;0.70;;
57023;SDS011;42916;54.346;18.562;2023-07-20T10:16:35;0.90;;;0.90;;
57023;SDS011;42916;54.346;18.562;2023-07-20T10:19:07;1.90;;;0.60;;
57023;SDS011;42916;54.346;18.562;2023-07-20T10:21:40;1.30;;;0.70;;
57023;SDS011;42916;54.346;18.562;2023-07-20T10:24:12;1.10;;;0.50;;
57023;SDS011;42916;54.346;18.562;2023-07-20T10:26:39;1.00;;;0.60;;
57023;SDS011;42916;54.346;18.562;2023-07-20T10:29:06;1.10;;;0.70;;
57023;SDS011;42916;54.346;18.562;2023-07-20T10:31:34;0.90;;;0.70;;
57023;SDS011;42916;54.346;18.562;2023-07-20T10:34:01;1.70;;;0.80;;
57023;SDS011;42916;54.346;18.562;2023-07-20T10:36:28;0.90;;;0.70;;
57023;SDS011;42916;54.346;18.562;2023-07-20T10:38:56;1.20;;;0.70;;
57023;SDS011;42916;54.346;18.562;2023-07-20T10:41:37;1.30;;;0.60;;
57023;SDS011;42916;54.346;18.562;2023-07-20T10:44:07;1.00;;;0.70;;
57023;SDS011;42916;54.346;18.562;2023-07-20T10:49:05;1.30;;;0.70;;
57023;SDS011;42916;54.346;18.562;2023-07-20T10:51:40;3.20;;;0.70;;
57023;SDS011;42916;54.346;18.562;2023-07-20T10:56:44;1.90;;;0.80;;
57023;SDS011;42916;54.346;18.562;2023-07-20T10:59:35;0.70;;;0.70;;
57023;SDS011;42916;54.346;18.562;2023-07-20T11:02:08;1.90;;;0.80;;
57023;SDS011;42916;54.346;18.562;2023-07-20T11:04:38;0.90;;;0.50;;
57023;SDS011;42916;54.346;18.562;2023-07-20T11:07:17;0.80;;;0.70;;
57023;SDS011;42916;54.346;18.562;2023-07-20T11:10:12;1.10;;;0.70;;
57023;SDS011;42916;54.346;18.562;2023-07-20T11:12:40;1.50;;;0.70;;
57023;SDS011;42916;54.346;18.562;2023-07-20T11:15:07;0.80;;;0.60;;
57023;SDS011;42916;54.346;18.562;2023-07-20T11:17:34;1.20;;;0.50;;
57023;SDS011;42916;54.346;18.562;2023-07-20T11:20:02;1.20;;;0.50;;
57023;SDS011;42916;54.346;18.562;2023-07-20T11:22:32;3.00;;;0.50;;
57023;SDS011;42916;54.346;18.562;2023-07-20T11:25:00;0.90;;;0.50;;
57023;SDS011;42916;54.346;18.562;2023-07-20T11:27:26;1.00;;;0.40;;
57023;SDS011;42916;54.346;18.562;2023-07-20T11:29:54;0.80;;;0.40;;
57023;SDS011;42916;54.346;18.562;2023-07-20T11:32:22;1.20;;;0.70;;
57023;SDS011;42916;54.346;18.562;2023-07-20T11:34:49;1.60;;;0.60;;
57023;SDS011;42916;54.346;18.562;2023-07-20T11:37:17;1.20;;;0.70;;
57023;SDS011;42916;54.346;18.562;2023-07-20T11:39:47;1.10;;;0.40;;
57023;SDS011;42916;54.346;18.562;2023-07-20T11:42:14;1.70;;;0.70;;
57023;SDS011;42916;54.346;18.562;2023-07-20T11:44:41;2.00;;;0.60;;
57023;SDS011;42916;54.346;18.562;2023-07-20T11:47:09;1.60;;;0.60;;
57023;SDS011;42916;54.346;18.562;2023-07-20T11:49:41;0.70;;;0.40;;
57023;SDS011;42916;54.346;18.562;2023-07-20T11:52:09;0.50;;;0.30;;
57023;SDS011;42916;54.346;18.562;2023-07-20T11:54:38;0.40;;;0.40;;
57023;SDS011;42916;54.346;18.562;2023-07-20T11:57:06;1.80;;;0.50;;
57023;SDS011;42916;54.346;18.562;2023-07-20T11:59:33;0.50;;;0.30;;
57023;SDS011;42916;54.346;18.562;2023-07-20T12:02:03;0.70;;;0.30;;
57023;SDS011;42916;54.346;18.562;2023-07-20T12:04:33;1.30;;;0.30;;
57023;SDS011;42916;54.346;18.562;2023-07-20T12:07:00;0.40;;;0.20;;
57023;SDS011;42916;54.346;18.562;2023-07-20T12:09:27;1.90;;;0.30;;
57023;SDS011;42916;54.346;18.562;2023-07-20T12:11:54;0.30;;;0.30;;
57023;SDS011;42916;54.346;18.562;2023-07-20T12:14:21;0.70;;;0.30;;
57023;SDS011;42916;54.346;18.562;2023-07-20T12:16:52;0.70;;;0.30;;
57023;SDS011;42916;54.346;18.562;2023-07-20T12:19:21;0.50;;;0.40;;
57023;SDS011;42916;54.346;18.562;2023-07-20T12:21:56;0.50;;;0.50;;
57023;SDS011;42916;54.346;18.562;2023-07-20T12:24:25;1.60;;;0.50;;
57023;SDS011;42916;54.346;18.562;2023-07-20T12:26:55;0.60;;;0.30;;
57023;SDS011;42916;54.346;18.562;2023-07-20T12:29:25;1.20;;;0.50;;
57023;SDS011;42916;54.346;18.562;2023-07-20T12:31:52;0.40;;;0.20;;
57023;SDS011;42916;54.346;18.562;2023-07-20T12:34:19;1.10;;;0.40;;
57023;SDS011;42916;54.346;18.562;2023-07-20T12:36:46;0.70;;;0.30;;
57023;SDS011;42916;54.346;18.562;2023-07-20T12:39:13;0.50;;;0.30;;
57023;SDS011;42916;54.346;18.562;2023-07-20T12:41:39;0.70;;;0.30;;
57023;SDS011;42916;54.346;18.562;2023-07-20T12:44:06;1.10;;;0.40;;
57023;SDS011;42916;54.346;18.562;2023-07-20T12:46:33;0.80;;;0.30;;
57023;SDS011;42916;54.346;18.562;2023-07-20T12:49:03;0.40;;;0.30;;
57023;SDS011;42916;54.346;18.562;2023-07-20T12:51:29;1.40;;;0.40;;
57023;SDS011;42916;54.346;18.562;2023-07-20T12:53:56;0.50;;;0.30;;
57023;SDS011;42916;54.346;18.562;2023-07-20T12:56:23;0.70;;;0.30;;
57023;SDS011;42916;54.346;18.562;2023-07-20T12:58:50;2.70;;;0.30;;
57023;SDS011;42916;54.346;18.562;2023-07-20T13:01:16;0.60;;;0.30;;
57023;SDS011;42916;54.346;18.562;2023-07-20T13:03:43;1.00;;;0.30;;
57023;SDS011;42916;54.346;18.562;2023-07-20T13:06:10;0.60;;;0.20;;
57023;SDS011;42916;54.346;18.562;2023-07-20T13:08:37;1.40;;;0.40;;
57023;SDS011;42916;54.346;18.562;2023-07-20T13:11:04;0.30;;;0.20;;
57023;SDS011;42916;54.346;18.562;2023-07-20T13:13:31;1.20;;;0.30;;
57023;SDS011;42916;54.346;18.562;2023-07-20T13:15:58;0.40;;;0.30;;
57023;SDS011;42916;54.346;18.562;2023-07-20T13:18:24;0.40;;;0.30;;
57023;SDS011;42916;54.346;18.562;2023-07-20T13:20:51;2.00;;;0.30;;
57023;SDS011;42916;54.346;18.562;2023-07-20T13:23:18;0.90;;;0.30;;
57023;SDS011;42916;54.346;18.562;2023-07-20T13:25:45;1.80;;;0.40;;
57023;SDS011;42916;54.346;18.562;2023-07-20T13:28:11;0.40;;;0.20;;
57023;SDS011;42916;54.346;18.562;2023-07-20T13:30:39;1.40;;;0.30;;
57023;SDS011;42916;54.346;18.562;2023-07-20T13:33:05;1.60;;;0.60;;
57023;SDS011;42916;54.346;18.562;2023-07-20T13:35:32;0.80;;;0.40;;
57023;SDS011;42916;54.346;18.562;2023-07-20T13:37:59;1.00;;;0.20;;
57023;SDS011;42916;54.346;18.562;2023-07-20T13:40:25;1.20;;;0.40;;
57023;SDS011;42916;54.346;18.562;2023-07-20T13:42:52;1.20;;;0.20;;
57023;SDS011;42916;54.346;18.562;2023-07-20T13:45:19;1.80;;;0.30;;
57023;SDS011;42916;54.346;18.562;2023-07-20T13:47:46;1.20;;;0.60;;
57023;SDS011;42916;54.346;18.562;2023-07-20T13:50:12;4.80;;;0.50;;
57023;SDS011;42916;54.346;18.562;2023-07-20T13:52:39;1.80;;;0.50;;
57023;SDS011;42916;54.346;18.562;2023-07-20T13:55:06;1.90;;;0.60;;
57023;SDS011;42916;54.346;18.562;2023-07-20T13:57:33;1.50;;;0.50;;
57023;SDS011;42916;54.346;18.562;2023-07-20T14:00:00;0.90;;;0.50;;
57023;SDS011;42916;54.346;18.562;2023-07-20T14:02:27;1.60;;;0.40;;
57023;SDS011;42916;54.346;18.562;2023-07-20T14:04:54;1.20;;;0.50;;
57023;SDS011;42916;54.346;18.562;2023-07-20T14:07:22;1.60;;;0.50;;
57023;SDS011;42916;54.346;18.562;2023-07-20T14:09:49;1.20;;;0.70;;
57023;SDS011;42916;54.346;18.562;2023-07-20T14:12:16;1.00;;;0.50;;
57023;SDS011;42916;54.346;18.562;2023-07-20T14:14:42;0.80;;;0.50;;
57023;SDS011;42916;54.346;18.562;2023-07-20T14:17:09;2.20;;;0.50;;
57023;SDS011;42916;54.346;18.562;2023-07-20T14:19:37;0.90;;;0.30;;
57023;SDS011;42916;54.346;18.562;2023-07-20T14:22:04;1.20;;;0.60;;
57023;SDS011;42916;54.346;18.562;2023-07-20T14:24:31;1.50;;;0.50;;
57023;SDS011;42916;54.346;18.562;2023-07-20T14:26:57;0.90;;;0.50;;
57023;SDS011;42916;54.346;18.562;2023-07-20T14:29:26;1.10;;;0.60;;
57023;SDS011;42916;54.346;18.562;2023-07-20T14:31:53;2.30;;;0.40;;
57023;SDS011;42916;54.346;18.562;2023-07-20T14:34:20;4.00;;;0.40;;
57023;SDS011;42916;54.346;18.562;2023-07-20T14:36:47;1.50;;;0.50;;
57023;SDS011;42916;54.346;18.562;2023-07-20T14:39:14;1.20;;;0.30;;
57023;SDS011;42916;54.346;18.562;2023-07-20T14:41:40;1.00;;;0.50;;
57023;SDS011;42916;54.346;18.562;2023-07-20T14:44:07;1.30;;;0.50;;
57023;SDS011;42916;54.346;18.562;2023-07-20T14:46:36;3.00;;;0.70;;
57023;SDS011;42916;54.346;18.562;2023-07-20T14:49:03;1.30;;;0.50;;
57023;SDS011;42916;54.346;18.562;2023-07-20T14:51:29;2.50;;;0.40;;
57023;SDS011;42916;54.346;18.562;2023-07-20T14:53:59;2.50;;;0.50;;
57023;SDS011;42916;54.346;18.562;2023-07-20T14:58:54;2.10;;;0.50;;
57023;SDS011;42916;54.346;18.562;2023-07-20T15:01:21;2.20;;;0.70;;